createdAt,value
2024-01-21T00:01:15.436Z,21.67
2024-01-21T00:06:38.098Z,16.17
2024-01-21T00:12:00.597Z,15.17
2024-01-21T00:17:23.104Z,15.67
2024-01-21T00:22:45.963Z,11.63
2024-01-21T00:28:08.663Z,11.47
2024-01-21T00:33:31.225Z,15.67
2024-01-21T00:38:53.571Z,14.00
2024-01-21T00:44:16.006Z,18.93
2024-01-21T00:49:41.187Z,14.60
2024-01-21T00:55:04.002Z,16.00
2024-01-21T01:00:28.468Z,12.80
2024-01-21T01:05:51.533Z,14.73
2024-01-21T01:11:13.977Z,14.10
2024-01-21T01:16:40.577Z,10.80
2024-01-21T01:22:03.532Z,14.70
2024-01-21T01:27:26.217Z,11.10
2024-01-21T01:32:48.598Z,15.53
2024-01-21T01:38:13.601Z,10.13
2024-01-21T01:43:35.914Z,12.77
2024-01-21T01:48:59.314Z,11.13
2024-01-21T01:54:24.418Z,11.00
2024-01-21T01:59:46.880Z,10.73
2024-01-21T02:05:09.706Z,8.43
2024-01-21T02:10:32.389Z,10.10
2024-01-21T02:15:55.123Z,8.83
2024-01-21T02:21:18.315Z,10.70
2024-01-21T02:26:40.641Z,10.50
2024-01-21T02:32:03.569Z,8.20
2024-01-21T02:37:25.746Z,12.53
2024-01-21T02:42:48.430Z,11.73
2024-01-21T02:48:11.016Z,10.93
2024-01-21T02:53:33.592Z,11.57
2024-01-21T02:58:56.141Z,13.37
2024-01-21T03:04:18.669Z,8.60
2024-01-21T03:09:41.943Z,10.13
2024-01-21T03:15:07.727Z,18.77
2024-01-21T03:20:30.146Z,14.83
2024-01-21T03:25:52.390Z,11.83
2024-01-21T03:31:14.562Z,9.30
2024-01-21T03:36:37.142Z,9.90
2024-01-21T03:41:59.726Z,8.13
2024-01-21T03:47:22.056Z,12.30
2024-01-21T03:52:44.543Z,12.67
2024-01-21T03:58:06.908Z,14.60
2024-01-21T04:03:29.371Z,11.40
2024-01-21T04:08:51.723Z,11.90
2024-01-21T04:14:14.001Z,12.17
2024-01-21T04:19:36.567Z,12.07
2024-01-21T04:24:58.958Z,10.23
2024-01-21T04:30:21.423Z,8.47
2024-01-21T04:35:43.670Z,15.97
2024-01-21T04:41:06.369Z,6.97
2024-01-21T04:46:28.826Z,16.47
2024-01-21T04:51:53.321Z,12.93
2024-01-21T04:57:15.900Z,13.17
2024-01-21T05:02:38.339Z,7.43
2024-01-21T05:08:00.603Z,12.23
2024-01-21T05:13:23.909Z,7.03
2024-01-21T05:18:47.190Z,16.73
2024-01-21T05:24:09.824Z,14.53
2024-01-21T05:29:34.893Z,10.27
2024-01-21T05:34:59.266Z,6.87
2024-01-21T05:40:21.591Z,7.93
2024-01-21T05:45:43.954Z,7.87
2024-01-21T05:51:06.855Z,10.87
2024-01-21T05:56:29.095Z,7.77
2024-01-21T06:01:51.956Z,9.37
2024-01-21T06:07:14.546Z,10.77
2024-01-21T06:12:37.757Z,10.67
2024-01-21T06:18:00.341Z,4.17
2024-01-21T06:23:26.208Z,8.83
2024-01-21T06:28:48.800Z,13.30
2024-01-21T06:34:11.185Z,9.63
2024-01-21T06:39:33.680Z,10.77
2024-01-21T06:44:56.283Z,6.87
2024-01-21T06:50:18.575Z,7.93
2024-01-21T06:55:40.900Z,7.30
2024-01-21T07:01:04.119Z,10.07
2024-01-21T07:06:26.734Z,7.07
2024-01-21T07:11:49.414Z,9.87
2024-01-21T07:17:12.241Z,7.83
2024-01-21T07:22:34.402Z,5.80
2024-01-21T07:27:57.134Z,9.43
2024-01-21T07:33:20.555Z,5.07
2024-01-21T07:38:43.366Z,9.60
2024-01-21T07:44:06.021Z,10.50
2024-01-21T07:49:28.471Z,8.47
2024-01-21T07:54:51.009Z,8.63
2024-01-21T08:00:13.839Z,5.50
2024-01-21T08:05:36.347Z,6.63
2024-01-21T08:10:58.755Z,4.37
2024-01-21T08:16:21.165Z,5.43
2024-01-21T08:21:43.443Z,5.87
2024-01-21T08:27:06.913Z,7.07
2024-01-21T08:32:29.342Z,5.30
2024-01-21T08:37:51.631Z,3.20
2024-01-21T08:43:13.792Z,3.63
2024-01-21T08:48:36.383Z,6.67
2024-01-21T08:53:59.157Z,2.40
2024-01-21T08:59:21.942Z,2.27
2024-01-21T09:04:44.620Z,4.50
2024-01-21T09:10:10.180Z,3.53
2024-01-21T09:15:32.756Z,3.70
2024-01-21T09:20:55.372Z,4.27
2024-01-21T09:26:17.911Z,1.80
2024-01-21T09:31:40.720Z,5.13
2024-01-21T09:37:03.560Z,3.80
2024-01-21T09:42:25.800Z,2.60
2024-01-21T09:47:54.208Z,3.20
2024-01-21T09:53:17.327Z,8.77
2024-01-21T09:58:51.601Z,3.97
2024-01-21T10:04:18.974Z,3.27
2024-01-21T10:09:41.734Z,2.57
2024-01-21T10:15:04.154Z,1.83
2024-01-21T10:20:29.544Z,2.50
2024-01-21T10:25:52.078Z,2.30
2024-01-21T10:31:14.733Z,3.30
2024-01-21T10:36:38.049Z,4.60
2024-01-21T10:42:01.577Z,5.17
2024-01-21T10:47:24.990Z,4.33
2024-01-21T10:52:49.407Z,3.80
2024-01-21T10:58:12.522Z,2.57
2024-01-21T11:03:37.056Z,4.03
2024-01-21T11:09:03.208Z,4.23
2024-01-21T11:14:43.758Z,6.10
2024-01-21T11:20:24.406Z,3.17
2024-01-21T11:25:54.675Z,3.93
2024-01-21T11:31:21.142Z,7.47
2024-01-21T11:36:45.058Z,4.53
2024-01-21T11:42:08.057Z,6.27
2024-01-21T11:47:30.798Z,4.33
2024-01-21T11:52:52.915Z,4.37
2024-01-21T11:58:15.917Z,10.93
2024-01-21T12:03:38.829Z,9.03
2024-01-21T12:09:04.487Z,8.93
2024-01-21T12:14:27.026Z,3.47
2024-01-21T12:19:49.677Z,3.43
2024-01-21T12:25:12.765Z,5.47
2024-01-21T12:30:38.473Z,4.07
2024-01-21T12:36:01.524Z,11.03
2024-01-21T12:41:24.546Z,7.70
2024-01-21T12:46:48.460Z,4.53
2024-01-21T12:52:10.993Z,2.60
2024-01-21T12:57:34.098Z,4.90
2024-01-21T13:02:56.602Z,3.50
2024-01-21T13:08:19.252Z,4.27
2024-01-21T13:13:41.502Z,6.10
2024-01-21T13:19:04.228Z,3.53
2024-01-21T13:24:26.832Z,4.87
2024-01-21T13:30:07.622Z,3.57
2024-01-21T13:35:30.177Z,8.90
2024-01-21T13:40:55.951Z,5.67
2024-01-21T13:46:18.700Z,5.90
2024-01-21T13:51:40.966Z,5.03
2024-01-21T13:57:03.391Z,6.00
2024-01-21T14:02:27.635Z,5.03
2024-01-21T14:07:51.377Z,4.63
2024-01-21T14:13:13.891Z,4.43
2024-01-21T14:18:39.304Z,4.30
2024-01-21T14:24:04.965Z,3.17
2024-01-21T14:29:32.217Z,2.73
2024-01-21T14:34:55.159Z,5.17
2024-01-21T14:40:17.612Z,6.10
2024-01-21T14:45:40.241Z,2.83
2024-01-21T14:51:02.458Z,4.37
2024-01-21T14:56:24.929Z,4.93
2024-01-21T15:01:47.442Z,6.23
2024-01-21T15:07:11.034Z,5.30
2024-01-21T15:12:33.737Z,3.97
2024-01-21T15:17:56.667Z,4.23
2024-01-21T15:23:21.836Z,6.50
2024-01-21T15:28:44.398Z,18.17
2024-01-21T15:34:09.807Z,18.50
2024-01-21T15:39:32.117Z,7.00
2024-01-21T15:44:54.558Z,7.47
2024-01-21T15:50:17.023Z,6.63
2024-01-21T15:55:39.440Z,6.73
2024-01-21T16:01:03.066Z,8.77
2024-01-21T16:06:26.060Z,5.50
2024-01-21T16:11:48.890Z,4.77
2024-01-21T16:17:15.015Z,7.47
2024-01-21T16:22:37.271Z,3.70
2024-01-21T16:27:59.873Z,3.00
2024-01-21T16:33:24.649Z,5.20
2024-01-21T16:38:47.703Z,4.87
2024-01-21T16:44:11.603Z,3.43
2024-01-21T16:49:35.350Z,3.73
2024-01-21T16:54:57.721Z,5.97
2024-01-21T17:00:24.001Z,4.70
2024-01-21T17:05:46.619Z,5.27
2024-01-21T17:11:18.559Z,7.53
2024-01-21T17:16:41.068Z,4.17
2024-01-21T17:22:03.305Z,3.63
2024-01-21T17:27:26.032Z,4.93
2024-01-21T17:32:48.498Z,4.13
2024-01-21T17:38:10.818Z,4.10
2024-01-21T17:43:33.472Z,6.20
2024-01-21T17:48:56.556Z,4.17
2024-01-21T17:54:19.358Z,5.70
2024-01-21T17:59:41.976Z,7.37
2024-01-21T18:05:04.711Z,5.93
2024-01-21T18:10:26.903Z,5.97
2024-01-21T18:15:49.470Z,5.93
2024-01-21T18:21:16.421Z,4.27
2024-01-21T18:26:38.892Z,5.10
2024-01-21T18:32:05.560Z,3.93
2024-01-21T18:37:28.111Z,5.57
2024-01-21T18:42:50.843Z,3.97
2024-01-21T18:48:13.160Z,7.33
2024-01-21T18:53:35.660Z,5.10
2024-01-21T18:58:58.606Z,6.53
2024-01-21T19:04:22.318Z,5.57
2024-01-21T19:09:46.592Z,7.10
2024-01-21T19:15:09.329Z,8.00
2024-01-21T19:20:31.922Z,3.90
2024-01-21T19:25:54.540Z,4.93
2024-01-21T19:31:17.530Z,7.20
2024-01-21T19:36:40.416Z,7.83
2024-01-21T19:42:03.145Z,11.83
2024-01-21T19:47:25.784Z,5.63
2024-01-21T19:52:48.403Z,7.20
2024-01-21T19:58:10.744Z,7.93
2024-01-21T20:03:33.006Z,8.00
2024-01-21T20:08:55.392Z,6.33
2024-01-21T20:14:17.977Z,7.40
2024-01-21T20:19:40.258Z,8.83
2024-01-21T20:24:57.454Z,5.97
2024-01-21T20:30:19.951Z,6.70
2024-01-21T20:35:42.690Z,4.60
2024-01-21T20:41:09.684Z,6.17
2024-01-21T20:46:31.845Z,6.73
2024-01-21T20:51:54.118Z,8.73
2024-01-21T20:57:16.434Z,8.07
2024-01-21T21:02:38.943Z,9.67
2024-01-21T21:08:01.403Z,7.23
2024-01-21T21:13:24.950Z,4.90
2024-01-21T21:18:47.823Z,6.90
2024-01-21T21:24:12.015Z,6.43
2024-01-21T21:29:34.700Z,5.40
2024-01-21T21:34:57.142Z,7.43
2024-01-21T21:40:19.978Z,7.67
2024-01-21T21:45:44.676Z,7.33
2024-01-21T21:51:08.565Z,9.23
2024-01-21T21:56:31.246Z,9.10
2024-01-21T22:01:54.406Z,5.63
2024-01-21T22:07:17.321Z,7.50
2024-01-21T22:12:39.490Z,6.20
2024-01-21T22:18:03.638Z,6.53
2024-01-21T22:23:26.190Z,7.20
2024-01-21T22:28:48.517Z,9.10
2024-01-21T22:34:10.880Z,11.20
2024-01-21T22:39:33.332Z,11.97
2024-01-21T22:44:55.724Z,7.57
2024-01-21T22:50:18.161Z,5.10
2024-01-21T22:55:40.633Z,6.97
2024-01-21T23:01:03.329Z,6.40
2024-01-21T23:06:25.420Z,7.93
2024-01-21T23:11:47.484Z,8.27
2024-01-21T23:17:09.937Z,10.53
2024-01-21T23:22:32.001Z,7.37
2024-01-21T23:27:54.252Z,9.47
2024-01-21T23:33:16.627Z,8.73
2024-01-21T23:38:38.947Z,9.00
2024-01-21T23:44:01.629Z,7.97
2024-01-21T23:49:23.743Z,6.50
2024-01-21T23:54:46.101Z,11.00
